createdAt,value
2023-02-19T00:00:15.028Z,20.00
2023-02-19T00:02:43.724Z,21.00
2023-02-19T00:05:12.387Z,18.90
2023-02-19T00:07:40.639Z,17.80
2023-02-19T00:10:10.784Z,17.90
2023-02-19T00:12:39.071Z,18.90
2023-02-19T00:15:08.112Z,19.90
2023-02-19T00:17:36.466Z,19.50
2023-02-19T00:20:06.735Z,21.00
2023-02-19T00:22:35.029Z,15.90
2023-02-19T00:25:03.352Z,20.10
2023-02-19T00:27:32.937Z,17.30
2023-02-19T00:30:01.267Z,15.40
2023-02-19T00:32:29.848Z,18.00
2023-02-19T00:34:58.791Z,17.60
2023-02-19T00:37:28.617Z,17.50
2023-02-19T00:39:57.397Z,17.90
2023-02-19T00:42:26.314Z,17.20
2023-02-19T00:44:54.700Z,14.40
2023-02-19T00:47:22.945Z,22.20
2023-02-19T00:49:52.103Z,17.90
2023-02-19T00:52:21.748Z,16.20
2023-02-19T00:54:50.619Z,16.00
2023-02-19T00:57:18.957Z,15.70
2023-02-19T00:59:47.260Z,16.20
2023-02-19T01:02:16.680Z,16.50
2023-02-19T01:04:45.005Z,15.30
2023-02-19T01:07:13.379Z,16.30
2023-02-19T01:09:41.727Z,16.10
2023-02-19T01:12:10.131Z,15.00
2023-02-19T01:14:39.032Z,14.60
2023-02-19T01:17:11.855Z,15.30
2023-02-19T01:19:40.599Z,19.50
2023-02-19T01:22:08.908Z,18.30
2023-02-19T01:24:37.844Z,16.30
2023-02-19T01:27:06.304Z,17.90
2023-02-19T01:29:34.676Z,17.50
2023-02-19T01:32:03.117Z,20.20
2023-02-19T01:34:35.862Z,19.70
2023-02-19T01:37:05.964Z,19.80
2023-02-19T01:39:34.170Z,22.90
2023-02-19T01:42:03.347Z,14.90
2023-02-19T01:44:31.769Z,14.40
2023-02-19T01:46:59.967Z,15.00
2023-02-19T01:49:30.114Z,13.00
2023-02-19T01:52:04.412Z,12.50
2023-02-19T01:54:35.056Z,13.70
2023-02-19T01:57:04.867Z,11.90
2023-02-19T01:59:33.403Z,12.10
2023-02-19T02:02:02.279Z,13.40
2023-02-19T02:04:32.992Z,15.50
2023-02-19T02:07:02.464Z,16.10
2023-02-19T02:09:49.979Z,14.70
2023-02-19T02:14:51.192Z,13.20
2023-02-19T02:17:30.694Z,15.20
2023-02-19T02:20:14.812Z,12.90
2023-02-19T02:22:57.788Z,11.40
2023-02-19T02:25:44.757Z,9.30
2023-02-19T02:28:40.782Z,9.90
2023-02-19T02:31:15.725Z,11.70
2023-02-19T02:33:54.845Z,12.50
2023-02-19T02:36:35.507Z,14.10
2023-02-19T02:39:07.379Z,11.00
2023-02-19T02:41:42.440Z,11.50
2023-02-19T02:44:11.503Z,11.10
2023-02-19T02:46:41.693Z,10.50
2023-02-19T02:51:48.017Z,11.70
2023-02-19T02:55:04.100Z,11.80
2023-02-19T02:57:33.670Z,10.70
2023-02-19T03:00:02.016Z,9.90
2023-02-19T03:02:31.746Z,10.70
2023-02-19T03:05:39.374Z,12.70
2023-02-19T03:08:16.579Z,12.30
2023-02-19T03:10:47.951Z,11.50
2023-02-19T03:13:54.862Z,12.90
2023-02-19T03:16:45.447Z,10.50
2023-02-19T03:19:21.875Z,12.50
2023-02-19T03:22:13.317Z,11.20
2023-02-19T03:25:06.279Z,11.50
2023-02-19T03:27:35.138Z,14.80
2023-02-19T03:30:08.272Z,16.00
2023-02-19T03:32:40.620Z,14.10
2023-02-19T03:35:16.867Z,14.90
2023-02-19T03:37:56.136Z,15.20
2023-02-19T03:40:26.237Z,12.30
2023-02-19T03:43:06.987Z,14.10
2023-02-19T03:45:45.360Z,16.10
2023-02-19T03:48:36.408Z,14.20
2023-02-19T03:51:21.080Z,14.20
2023-02-19T03:54:03.738Z,12.40
2023-02-19T03:56:40.808Z,12.50
2023-02-19T03:59:30.493Z,13.70
2023-02-19T04:02:06.722Z,14.40
2023-02-19T04:04:38.298Z,12.70
2023-02-19T04:07:06.631Z,13.30
2023-02-19T04:09:39.349Z,14.60
2023-02-19T04:12:12.692Z,15.00
2023-02-19T04:14:46.173Z,15.70
2023-02-19T04:17:20.175Z,13.10
2023-02-19T04:19:48.910Z,15.10
2023-02-19T04:22:17.591Z,14.00
2023-02-19T04:24:50.447Z,15.90
2023-02-19T04:27:18.792Z,12.60
2023-02-19T04:29:48.054Z,13.80
2023-02-19T04:32:16.285Z,14.30
2023-02-19T04:34:44.593Z,15.00
2023-02-19T04:37:12.993Z,15.80
2023-02-19T04:39:41.396Z,15.00
2023-02-19T04:42:10.652Z,17.30
2023-02-19T04:44:39.111Z,14.70
2023-02-19T04:47:07.331Z,17.10
2023-02-19T04:49:36.398Z,15.60
2023-02-19T04:52:05.655Z,19.10
2023-02-19T04:54:35.497Z,17.60
2023-02-19T04:57:03.904Z,26.20
2023-02-19T04:59:32.919Z,20.80
2023-02-19T05:02:02.466Z,22.10
2023-02-19T05:04:32.920Z,19.80
2023-02-19T05:07:02.094Z,19.10
2023-02-19T05:09:32.590Z,21.90
2023-02-19T05:12:00.846Z,19.70
2023-02-19T05:14:29.326Z,19.30
2023-02-19T05:16:57.651Z,18.30
2023-02-19T05:19:30.810Z,24.50
2023-02-19T05:21:59.237Z,21.70
2023-02-19T05:24:28.619Z,21.60
2023-02-19T05:26:57.194Z,23.40
2023-02-19T05:29:25.649Z,21.80
2023-02-19T05:31:54.153Z,22.70
2023-02-19T05:34:22.532Z,27.70
2023-02-19T05:36:51.767Z,24.80
2023-02-19T05:39:20.223Z,24.70
2023-02-19T05:41:48.609Z,28.70
2023-02-19T05:44:16.845Z,24.90
2023-02-19T05:46:45.312Z,22.90
2023-02-19T05:49:14.065Z,25.90
2023-02-19T05:51:42.840Z,20.00
2023-02-19T05:54:11.542Z,25.30
2023-02-19T05:56:42.161Z,22.20
2023-02-19T05:59:16.945Z,23.20
2023-02-19T06:01:45.410Z,30.80
2023-02-19T06:04:14.443Z,22.50
2023-02-19T06:06:42.835Z,27.40
2023-02-19T06:09:12.480Z,25.10
2023-02-19T06:11:40.848Z,25.50
2023-02-19T06:14:14.509Z,23.50
2023-02-19T06:16:44.215Z,27.50
2023-02-19T06:19:12.508Z,24.80
2023-02-19T06:21:41.624Z,27.10
2023-02-19T06:24:10.755Z,24.30
2023-02-19T06:26:39.600Z,21.00
2023-02-19T06:29:07.890Z,25.90
2023-02-19T06:31:36.656Z,24.20
2023-02-19T06:34:05.452Z,23.00
2023-02-19T06:36:34.913Z,20.50
2023-02-19T06:39:03.893Z,17.50
2023-02-19T06:41:32.709Z,21.20
2023-02-19T06:44:02.031Z,19.80
2023-02-19T06:46:30.627Z,16.50
2023-02-19T06:48:59.745Z,17.50
2023-02-19T06:51:29.909Z,14.50
2023-02-19T06:53:58.655Z,14.80
2023-02-19T06:56:31.900Z,13.80
2023-02-19T06:59:01.716Z,18.00
2023-02-19T07:01:31.162Z,14.20
2023-02-19T07:04:00.847Z,12.90
2023-02-19T07:06:29.601Z,13.30
2023-02-19T07:09:00.445Z,14.90
2023-02-19T07:11:31.580Z,11.70
2023-02-19T07:14:00.932Z,10.50
2023-02-19T07:16:29.798Z,12.10
2023-02-19T07:18:58.965Z,15.00
2023-02-19T07:21:31.506Z,8.40
2023-02-19T07:24:00.443Z,9.10
2023-02-19T07:26:34.616Z,8.30
2023-02-19T07:29:03.366Z,8.40
2023-02-19T07:31:31.765Z,8.60
2023-02-19T07:34:00.420Z,6.70
2023-02-19T07:36:29.816Z,6.00
2023-02-19T07:38:59.428Z,5.20
2023-02-19T07:41:28.402Z,5.50
2023-02-19T07:43:59.153Z,5.70
2023-02-19T07:46:30.195Z,5.90
2023-02-19T07:48:59.821Z,6.80
2023-02-19T07:54:01.548Z,7.90
2023-02-19T07:56:31.443Z,6.70
2023-02-19T07:59:00.729Z,6.40
2023-02-19T08:01:48.716Z,7.70
2023-02-19T08:04:17.229Z,6.80
2023-02-19T08:06:46.831Z,5.10
2023-02-19T08:09:15.085Z,6.30
2023-02-19T08:12:01.993Z,7.00
2023-02-19T08:14:32.406Z,9.30
2023-02-19T08:17:01.142Z,6.90
2023-02-19T08:19:29.646Z,8.00
2023-02-19T08:21:58.204Z,8.10
2023-02-19T08:24:29.108Z,11.60
2023-02-19T08:26:57.333Z,8.90
2023-02-19T08:29:25.644Z,10.00
2023-02-19T08:31:53.867Z,7.80
2023-02-19T08:34:22.278Z,6.50
2023-02-19T08:36:50.837Z,8.10
2023-02-19T08:39:21.000Z,7.90
2023-02-19T08:41:52.805Z,7.90
2023-02-19T08:44:21.483Z,8.40
2023-02-19T08:46:54.879Z,6.40
2023-02-19T08:49:28.006Z,6.30
2023-02-19T08:51:57.060Z,8.00
2023-02-19T08:54:25.662Z,10.70
2023-02-19T08:56:54.305Z,7.90
2023-02-19T08:59:22.561Z,6.50
2023-02-19T09:01:52.842Z,7.10
2023-02-19T09:04:21.206Z,7.30
2023-02-19T09:06:49.481Z,5.80
2023-02-19T09:09:18.303Z,6.80
2023-02-19T09:11:49.222Z,7.80
2023-02-19T09:14:18.347Z,8.60
2023-02-19T09:16:47.166Z,8.70
2023-02-19T09:19:15.585Z,7.00
2023-02-19T09:21:43.854Z,5.50
2023-02-19T09:24:12.275Z,8.80
2023-02-19T09:26:41.890Z,5.50
2023-02-19T09:29:10.696Z,4.90
2023-02-19T09:31:39.337Z,7.40
2023-02-19T09:34:07.854Z,5.10
2023-02-19T09:36:36.924Z,4.10
2023-02-19T09:39:07.978Z,4.90
2023-02-19T09:44:06.522Z,5.10
2023-02-19T09:46:44.409Z,5.00
2023-02-19T09:49:18.349Z,9.70
2023-02-19T09:51:55.587Z,8.20
2023-02-19T09:54:26.525Z,7.60
2023-02-19T09:56:55.640Z,6.80
2023-02-19T10:02:02.614Z,4.50
2023-02-19T10:04:31.042Z,7.50
2023-02-19T10:07:03.677Z,10.10
2023-02-19T10:09:32.934Z,6.80
2023-02-19T10:12:01.766Z,8.10
2023-02-19T10:14:31.921Z,9.50
2023-02-19T10:17:04.328Z,5.30
2023-02-19T10:19:34.315Z,6.70
2023-02-19T10:22:04.231Z,9.50
2023-02-19T10:24:35.497Z,8.20
2023-02-19T10:27:09.800Z,5.70
2023-02-19T10:29:40.555Z,5.50
2023-02-19T10:32:18.899Z,6.00
2023-02-19T10:35:10.166Z,6.20
2023-02-19T10:40:22.880Z,5.10
2023-02-19T10:43:01.825Z,5.00
2023-02-19T10:45:40.398Z,7.60
2023-02-19T10:48:19.968Z,7.00
2023-02-19T10:50:56.327Z,5.50
2023-02-19T10:53:35.764Z,4.40
2023-02-19T10:56:10.071Z,2.60
2023-02-19T10:58:40.372Z,3.40
2023-02-19T11:04:18.597Z,4.90
2023-02-19T11:06:48.214Z,3.20
2023-02-19T11:09:26.842Z,4.10
2023-02-19T11:11:57.215Z,3.20
2023-02-19T11:14:25.865Z,4.10
2023-02-19T11:16:58.525Z,3.90
2023-02-19T11:19:37.278Z,3.70
2023-02-19T11:22:38.702Z,2.80
2023-02-19T11:25:07.677Z,8.40
2023-02-19T11:27:37.525Z,4.20
2023-02-19T11:30:35.872Z,3.30
2023-02-19T11:33:33.725Z,3.50
2023-02-19T11:36:23.858Z,2.40
2023-02-19T11:38:52.339Z,3.30
2023-02-19T11:41:43.478Z,2.80
2023-02-19T11:44:12.232Z,3.40
2023-02-19T11:46:48.418Z,6.50
2023-02-19T11:49:29.366Z,5.00
2023-02-19T11:52:48.865Z,12.20
2023-02-19T11:55:52.336Z,4.80
2023-02-19T11:58:48.853Z,4.70
2023-02-19T12:01:35.491Z,2.70
2023-02-19T12:04:18.923Z,6.30
2023-02-19T12:06:55.999Z,3.60
2023-02-19T12:10:00.855Z,4.20
2023-02-19T12:12:47.348Z,4.40
2023-02-19T12:15:16.172Z,3.30
2023-02-19T12:18:07.927Z,5.00
2023-02-19T12:20:58.122Z,4.30
2023-02-19T12:23:48.789Z,4.80
2023-02-19T12:26:27.515Z,9.40
2023-02-19T12:29:28.056Z,4.50
2023-02-19T12:32:17.823Z,6.90
2023-02-19T12:34:53.108Z,4.70
2023-02-19T12:37:35.025Z,4.80
2023-02-19T12:40:28.560Z,6.60
2023-02-19T12:43:17.216Z,4.00
2023-02-19T12:45:47.526Z,6.00
2023-02-19T12:48:34.492Z,8.60
2023-02-19T12:51:08.923Z,8.30
2023-02-19T12:53:39.553Z,5.00
2023-02-19T12:56:15.174Z,6.20
2023-02-19T12:58:52.866Z,7.30
2023-02-19T13:01:26.987Z,8.50
2023-02-19T13:04:25.666Z,5.60
2023-02-19T13:06:57.969Z,6.80
2023-02-19T13:09:38.911Z,6.40
2023-02-19T13:12:41.335Z,8.20
2023-02-19T13:15:26.567Z,5.60
2023-02-19T13:17:56.160Z,6.70
2023-02-19T13:20:36.607Z,6.40
2023-02-19T13:23:27.673Z,6.90
2023-02-19T13:26:09.405Z,6.00
2023-02-19T13:28:47.569Z,4.40
2023-02-19T13:31:35.071Z,5.70
2023-02-19T13:34:20.337Z,5.30
2023-02-19T13:36:49.132Z,7.40
2023-02-19T13:39:17.638Z,4.50
2023-02-19T13:41:52.086Z,9.30
2023-02-19T13:44:26.106Z,7.00
2023-02-19T13:46:55.462Z,8.20
2023-02-19T13:49:31.985Z,11.50
2023-02-19T13:52:34.891Z,7.90
2023-02-19T13:55:42.978Z,3.40
2023-02-19T13:58:33.154Z,5.40
2023-02-19T14:01:13.722Z,4.70
2023-02-19T14:04:06.779Z,6.90
2023-02-19T14:07:07.047Z,3.80
2023-02-19T14:09:44.094Z,6.70
2023-02-19T14:12:15.933Z,7.40
2023-02-19T14:14:46.583Z,5.80
2023-02-19T14:17:36.267Z,4.60
2023-02-19T14:20:36.913Z,5.50
2023-02-19T14:23:22.946Z,5.00
2023-02-19T14:25:54.258Z,5.10
2023-02-19T14:31:09.595Z,5.20
2023-02-19T14:33:40.741Z,7.20
2023-02-19T14:36:39.180Z,6.00
2023-02-19T14:39:11.710Z,4.60
2023-02-19T14:41:41.613Z,4.50
2023-02-19T14:44:16.832Z,11.10
2023-02-19T14:46:53.252Z,6.90
2023-02-19T14:49:28.752Z,4.20
2023-02-19T14:52:01.623Z,6.00
2023-02-19T14:54:43.924Z,3.90
2023-02-19T14:57:19.384Z,10.20
2023-02-19T15:00:02.198Z,7.80
2023-02-19T15:02:32.244Z,5.90
2023-02-19T15:05:00.879Z,8.30
2023-02-19T15:07:32.962Z,7.60
2023-02-19T15:10:06.806Z,7.70
2023-02-19T15:12:47.696Z,10.40
2023-02-19T15:15:29.371Z,8.20
2023-02-19T15:17:59.338Z,8.90
2023-02-19T15:20:34.289Z,10.00
2023-02-19T15:23:07.358Z,8.90
2023-02-19T15:25:40.640Z,10.40
2023-02-19T15:28:26.379Z,11.00
2023-02-19T15:30:57.978Z,10.00
2023-02-19T15:33:27.923Z,8.50
2023-02-19T15:36:01.161Z,8.00
2023-02-19T15:38:30.157Z,11.10
2023-02-19T15:40:58.825Z,9.40
2023-02-19T15:43:33.295Z,8.80
2023-02-19T15:46:04.808Z,10.50
2023-02-19T15:48:41.475Z,11.70
2023-02-19T15:51:15.364Z,12.80
2023-02-19T15:53:48.078Z,16.20
2023-02-19T15:56:28.743Z,12.20
2023-02-19T15:59:02.161Z,11.30
2023-02-19T16:01:36.647Z,9.20
2023-02-19T16:04:09.126Z,11.70
2023-02-19T16:07:00.741Z,11.60
2023-02-19T16:09:33.737Z,11.70
2023-02-19T16:12:02.783Z,8.50
2023-02-19T16:14:32.311Z,7.20
2023-02-19T16:17:10.385Z,11.20
2023-02-19T16:20:00.692Z,7.00
2023-02-19T16:22:31.132Z,9.50
2023-02-19T16:25:03.692Z,9.20
2023-02-19T16:27:37.311Z,10.30
2023-02-19T16:30:10.803Z,8.40
2023-02-19T16:32:40.630Z,11.70
2023-02-19T16:35:35.681Z,8.90
2023-02-19T16:38:20.176Z,7.90
2023-02-19T16:40:48.946Z,7.00
2023-02-19T16:43:30.604Z,9.00
2023-02-19T16:45:59.457Z,8.70
2023-02-19T16:48:28.059Z,10.60
2023-02-19T16:51:01.629Z,9.80
2023-02-19T16:53:30.814Z,5.20
2023-02-19T16:56:00.096Z,8.90
2023-02-19T16:58:29.829Z,7.60
2023-02-19T17:00:58.358Z,7.80
2023-02-19T17:03:28.053Z,8.30
2023-02-19T17:05:56.414Z,6.70
2023-02-19T17:08:35.324Z,5.80
2023-02-19T17:11:11.726Z,8.00
2023-02-19T17:13:40.997Z,7.60
2023-02-19T17:16:13.736Z,6.90
2023-02-19T17:18:43.465Z,7.90
2023-02-19T17:21:19.914Z,5.90
2023-02-19T17:23:48.245Z,6.60
2023-02-19T17:26:24.683Z,6.90
2023-02-19T17:28:56.532Z,6.10
2023-02-19T17:31:25.127Z,7.50
2023-02-19T17:33:53.615Z,7.20
2023-02-19T17:36:32.996Z,5.60
2023-02-19T17:39:02.814Z,7.30
2023-02-19T17:41:31.654Z,5.90
2023-02-19T17:44:00.383Z,8.20
2023-02-19T17:46:28.887Z,6.70
2023-02-19T17:48:57.300Z,6.50
2023-02-19T17:51:25.831Z,5.50
2023-02-19T17:53:54.183Z,8.60
2023-02-19T17:56:26.508Z,6.30
2023-02-19T17:58:55.886Z,4.90
2023-02-19T18:01:24.662Z,10.10
2023-02-19T18:03:53.232Z,5.30
2023-02-19T18:06:21.668Z,6.00
2023-02-19T18:08:52.903Z,7.00
2023-02-19T18:11:22.796Z,7.50
2023-02-19T18:13:55.298Z,7.90
2023-02-19T18:16:24.525Z,8.00
2023-02-19T18:18:53.295Z,9.60
2023-02-19T18:21:24.720Z,7.70
2023-02-19T18:23:53.701Z,8.80
2023-02-19T18:26:23.962Z,7.10
2023-02-19T18:28:52.921Z,10.40
2023-02-19T18:31:23.459Z,9.00
2023-02-19T18:33:52.307Z,14.40
2023-02-19T18:36:21.350Z,8.70
2023-02-19T18:38:50.032Z,9.50
2023-02-19T18:41:21.398Z,10.60
2023-02-19T18:43:51.080Z,13.30
2023-02-19T18:46:21.090Z,9.00
2023-02-19T18:48:50.332Z,10.60
2023-02-19T18:51:23.559Z,12.40
2023-02-19T18:53:54.178Z,11.30
2023-02-19T18:56:23.214Z,14.20
2023-02-19T18:58:52.031Z,11.10
2023-02-19T19:01:20.415Z,13.60
2023-02-19T19:03:55.856Z,37.80
2023-02-19T19:06:25.375Z,13.70
2023-02-19T19:08:54.203Z,13.40
2023-02-19T19:11:23.308Z,14.70
2023-02-19T19:13:52.395Z,12.70
2023-02-19T19:16:25.143Z,11.20
2023-02-19T19:18:53.923Z,11.60
2023-02-19T19:21:22.451Z,15.10
2023-02-19T19:23:51.099Z,12.30
2023-02-19T19:26:20.247Z,14.20
2023-02-19T19:28:49.269Z,14.20
2023-02-19T19:31:18.672Z,13.90
2023-02-19T19:33:47.990Z,12.40
2023-02-19T19:36:20.716Z,15.30
2023-02-19T19:38:50.118Z,13.80
2023-02-19T19:41:19.427Z,15.90
2023-02-19T19:43:48.611Z,14.30
2023-02-19T19:46:20.070Z,12.70
2023-02-19T19:48:50.026Z,16.60
2023-02-19T19:51:18.715Z,13.40
2023-02-19T19:53:47.984Z,13.60
2023-02-19T19:56:18.047Z,12.30
2023-02-19T19:58:48.631Z,14.60
2023-02-19T20:01:21.332Z,16.10
2023-02-19T20:03:51.912Z,15.70
2023-02-19T20:06:25.525Z,14.40
2023-02-19T20:08:57.573Z,18.00
2023-02-19T20:11:26.161Z,13.80
2023-02-19T20:13:54.445Z,15.90
2023-02-19T20:16:28.590Z,15.70
2023-02-19T20:18:57.062Z,17.10
2023-02-19T20:21:26.827Z,17.80
2023-02-19T20:23:55.887Z,13.40
2023-02-19T20:26:25.860Z,14.30
2023-02-19T20:28:54.332Z,13.40
2023-02-19T20:31:23.135Z,15.50
2023-02-19T20:33:54.329Z,13.70
2023-02-19T20:36:23.191Z,16.80
2023-02-19T20:38:51.855Z,15.60
2023-02-19T20:41:21.580Z,15.00
2023-02-19T20:43:50.135Z,14.70
2023-02-19T20:46:19.831Z,15.70
2023-02-19T20:48:49.471Z,31.80
2023-02-19T20:51:19.907Z,19.70
2023-02-19T20:53:48.165Z,13.80
2023-02-19T20:56:16.588Z,16.30
2023-02-19T20:58:45.013Z,14.50
2023-02-19T21:01:17.483Z,15.50
2023-02-19T21:03:46.657Z,15.20
2023-02-19T21:06:15.672Z,19.00
2023-02-19T21:08:45.296Z,15.90
2023-02-19T21:11:13.656Z,17.60
2023-02-19T21:13:43.154Z,16.80
2023-02-19T21:16:11.724Z,17.90
2023-02-19T21:18:40.166Z,16.10
2023-02-19T21:21:08.758Z,16.70
2023-02-19T21:23:37.223Z,14.70
2023-02-19T21:26:05.839Z,19.50
2023-02-19T21:28:35.641Z,17.70
2023-02-19T21:31:04.538Z,17.90
2023-02-19T21:33:32.890Z,18.70
2023-02-19T21:36:03.554Z,20.60
2023-02-19T21:38:32.705Z,17.80
2023-02-19T21:41:01.458Z,20.00
2023-02-19T21:43:31.165Z,25.70
2023-02-19T21:46:00.287Z,17.30
2023-02-19T21:48:28.942Z,16.50
2023-02-19T21:50:57.214Z,13.80
2023-02-19T21:53:25.574Z,14.20
2023-02-19T21:55:58.769Z,16.50
2023-02-19T21:58:29.149Z,15.50
2023-02-19T22:00:58.448Z,13.50
2023-02-19T22:03:26.923Z,14.00
2023-02-19T22:05:55.687Z,15.30
2023-02-19T22:08:24.046Z,13.50
2023-02-19T22:10:53.810Z,14.60
2023-02-19T22:13:22.077Z,11.50
2023-02-19T22:15:52.553Z,11.40
2023-02-19T22:18:20.999Z,13.10
2023-02-19T22:20:52.609Z,9.50
2023-02-19T22:23:22.176Z,10.50
2023-02-19T22:25:50.682Z,11.40
2023-02-19T22:28:19.280Z,10.40
2023-02-19T22:30:47.752Z,10.40
2023-02-19T22:33:16.115Z,10.50
2023-02-19T22:35:44.380Z,11.00
2023-02-19T22:38:12.641Z,8.40
2023-02-19T22:40:41.378Z,8.00
2023-02-19T22:43:10.380Z,7.80
2023-02-19T22:45:38.949Z,5.50
2023-02-19T22:48:07.806Z,3.90
2023-02-19T22:50:36.278Z,3.80
2023-02-19T22:53:04.940Z,3.80
2023-02-19T22:55:33.504Z,3.60
2023-02-19T22:58:02.945Z,3.90
2023-02-19T23:00:31.572Z,4.60
2023-02-19T23:02:59.881Z,4.10
2023-02-19T23:05:28.290Z,4.10
2023-02-19T23:07:57.211Z,2.80
2023-02-19T23:10:25.464Z,4.50
2023-02-19T23:12:56.013Z,4.20
2023-02-19T23:15:26.514Z,3.20
2023-02-19T23:17:54.910Z,4.40
2023-02-19T23:20:24.189Z,3.70
2023-02-19T23:22:52.570Z,2.60
2023-02-19T23:25:20.774Z,3.90
2023-02-19T23:27:49.074Z,3.20
2023-02-19T23:30:17.649Z,3.10
2023-02-19T23:32:46.042Z,2.50
2023-02-19T23:35:14.424Z,3.20
2023-02-19T23:37:42.812Z,3.20
2023-02-19T23:40:12.549Z,3.90
2023-02-19T23:42:41.326Z,3.30
2023-02-19T23:45:09.678Z,1.30
2023-02-19T23:47:38.236Z,1.50
2023-02-19T23:50:07.302Z,1.30
2023-02-19T23:52:35.598Z,1.10
2023-02-19T23:55:04.454Z,1.70
2023-02-19T23:57:33.094Z,2.30
